sensor_id;sensor_type;location;lat;lon;timestamp;P1;durP1;ratioP1;P2;durP2;ratioP2
34920;SDS011;21128;50.016;20.002;2022-12-18T00:00:40;106.50;;;45.33;;
34920;SDS011;21128;50.016;20.002;2022-12-18T00:03:44;110.73;;;43.00;;
34920;SDS011;21128;50.016;20.002;2022-12-18T00:06:30;108.53;;;42.13;;
34920;SDS011;21128;50.016;20.002;2022-12-18T00:09:18;105.35;;;41.70;;
34920;SDS011;21128;50.016;20.002;2022-12-18T00:12:04;105.93;;;41.30;;
34920;SDS011;21128;50.016;20.002;2022-12-18T00:14:50;111.77;;;40.63;;
34920;SDS011;21128;50.016;20.002;2022-12-18T00:17:35;109.83;;;42.60;;
34920;SDS011;21128;50.016;20.002;2022-12-18T00:20:21;103.50;;;40.10;;
34920;SDS011;21128;50.016;20.002;2022-12-18T00:23:13;100.15;;;41.60;;
34920;SDS011;21128;50.016;20.002;2022-12-18T00:26:06;99.85;;;41.40;;
34920;SDS011;21128;50.016;20.002;2022-12-18T00:28:59;102.25;;;41.40;;
34920;SDS011;21128;50.016;20.002;2022-12-18T00:31:50;92.27;;;34.90;;
34920;SDS011;21128;50.016;20.002;2022-12-18T00:34:36;99.13;;;38.57;;
34920;SDS011;21128;50.016;20.002;2022-12-18T00:37:27;101.33;;;39.23;;
34920;SDS011;21128;50.016;20.002;2022-12-18T00:40:20;97.53;;;36.60;;
34920;SDS011;21128;50.016;20.002;2022-12-18T00:43:06;91.70;;;39.85;;
34920;SDS011;21128;50.016;20.002;2022-12-18T00:45:54;87.57;;;35.87;;
34920;SDS011;21128;50.016;20.002;2022-12-18T00:48:40;104.40;;;43.07;;
34920;SDS011;21128;50.016;20.002;2022-12-18T00:51:26;96.37;;;40.63;;
34920;SDS011;21128;50.016;20.002;2022-12-18T00:54:12;98.80;;;40.50;;
34920;SDS011;21128;50.016;20.002;2022-12-18T00:56:58;88.50;;;36.70;;
34920;SDS011;21128;50.016;20.002;2022-12-18T00:59:50;98.20;;;40.00;;
34920;SDS011;21128;50.016;20.002;2022-12-18T01:02:36;94.47;;;39.07;;
34920;SDS011;21128;50.016;20.002;2022-12-18T01:05:22;95.77;;;38.00;;
34920;SDS011;21128;50.016;20.002;2022-12-18T01:08:08;103.10;;;37.87;;
34920;SDS011;21128;50.016;20.002;2022-12-18T01:11:01;102.77;;;39.10;;
34920;SDS011;21128;50.016;20.002;2022-12-18T01:13:53;99.17;;;40.60;;
34920;SDS011;21128;50.016;20.002;2022-12-18T01:16:39;93.93;;;39.23;;
34920;SDS011;21128;50.016;20.002;2022-12-18T01:19:25;93.93;;;39.30;;
34920;SDS011;21128;50.016;20.002;2022-12-18T01:22:24;92.90;;;40.52;;
34920;SDS011;21128;50.016;20.002;2022-12-18T01:25:09;92.40;;;39.17;;
34920;SDS011;21128;50.016;20.002;2022-12-18T01:27:55;95.03;;;38.93;;
34920;SDS011;21128;50.016;20.002;2022-12-18T01:30:40;96.03;;;40.33;;
34920;SDS011;21128;50.016;20.002;2022-12-18T01:33:26;93.53;;;37.73;;
34920;SDS011;21128;50.016;20.002;2022-12-18T01:36:15;91.70;;;38.57;;
34920;SDS011;21128;50.016;20.002;2022-12-18T01:39:14;93.87;;;40.07;;
34920;SDS011;21128;50.016;20.002;2022-12-18T01:42:13;90.97;;;36.37;;
34920;SDS011;21128;50.016;20.002;2022-12-18T01:47:47;93.63;;;37.87;;
34920;SDS011;21128;50.016;20.002;2022-12-18T01:50:36;94.23;;;39.53;;
34920;SDS011;21128;50.016;20.002;2022-12-18T01:53:34;87.22;;;37.80;;
34920;SDS011;21128;50.016;20.002;2022-12-18T01:56:28;92.27;;;38.60;;
34920;SDS011;21128;50.016;20.002;2022-12-18T01:59:14;97.57;;;40.10;;
34920;SDS011;21128;50.016;20.002;2022-12-18T02:02:00;90.47;;;38.00;;
34920;SDS011;21128;50.016;20.002;2022-12-18T02:04:47;90.67;;;37.63;;
34920;SDS011;21128;50.016;20.002;2022-12-18T02:10:45;93.17;;;37.00;;
34920;SDS011;21128;50.016;20.002;2022-12-18T02:13:41;88.00;;;37.87;;
34920;SDS011;21128;50.016;20.002;2022-12-18T02:31:45;88.80;;;35.43;;
34920;SDS011;21128;50.016;20.002;2022-12-18T02:34:38;80.23;;;34.77;;
34920;SDS011;21128;50.016;20.002;2022-12-18T02:37:25;91.63;;;33.17;;
34920;SDS011;21128;50.016;20.002;2022-12-18T02:40:13;90.03;;;37.13;;
34920;SDS011;21128;50.016;20.002;2022-12-18T02:43:08;91.35;;;37.30;;
34920;SDS011;21128;50.016;20.002;2022-12-18T02:49:17;92.73;;;38.30;;
34920;SDS011;21128;50.016;20.002;2022-12-18T02:53:09;95.28;;;39.38;;
34920;SDS011;21128;50.016;20.002;2022-12-18T02:55:56;92.90;;;37.10;;
34920;SDS011;21128;50.016;20.002;2022-12-18T03:05:31;87.33;;;36.07;;
34920;SDS011;21128;50.016;20.002;2022-12-18T03:08:06;90.45;;;37.15;;
34920;SDS011;21128;50.016;20.002;2022-12-18T03:11:12;90.30;;;38.23;;
34920;SDS011;21128;50.016;20.002;2022-12-18T03:13:59;92.10;;;38.95;;
34920;SDS011;21128;50.016;20.002;2022-12-18T03:16:45;86.33;;;38.17;;
34920;SDS011;21128;50.016;20.002;2022-12-18T03:19:34;98.67;;;39.80;;
34920;SDS011;21128;50.016;20.002;2022-12-18T03:22:34;90.67;;;39.27;;
34920;SDS011;21128;50.016;20.002;2022-12-18T03:25:22;87.70;;;35.13;;
34920;SDS011;21128;50.016;20.002;2022-12-18T03:28:15;83.43;;;35.40;;
34920;SDS011;21128;50.016;20.002;2022-12-18T03:33:55;77.63;;;33.20;;
34920;SDS011;21128;50.016;20.002;2022-12-18T03:36:44;91.75;;;36.50;;
34920;SDS011;21128;50.016;20.002;2022-12-18T03:39:29;91.43;;;36.97;;
34920;SDS011;21128;50.016;20.002;2022-12-18T03:45:27;84.13;;;36.17;;
34920;SDS011;21128;50.016;20.002;2022-12-18T03:48:37;93.37;;;37.67;;
34920;SDS011;21128;50.016;20.002;2022-12-18T03:51:37;90.63;;;37.13;;
34920;SDS011;21128;50.016;20.002;2022-12-18T03:54:28;77.95;;;35.45;;
34920;SDS011;21128;50.016;20.002;2022-12-18T03:57:19;86.27;;;35.17;;
34920;SDS011;21128;50.016;20.002;2022-12-18T04:00:09;84.17;;;36.57;;
34920;SDS011;21128;50.016;20.002;2022-12-18T04:02:58;92.07;;;37.63;;
34920;SDS011;21128;50.016;20.002;2022-12-18T04:05:46;89.33;;;34.73;;
34920;SDS011;21128;50.016;20.002;2022-12-18T04:08:36;89.23;;;36.10;;
34920;SDS011;21128;50.016;20.002;2022-12-18T04:11:24;89.20;;;34.70;;
34920;SDS011;21128;50.016;20.002;2022-12-18T04:14:10;88.03;;;35.63;;
34920;SDS011;21128;50.016;20.002;2022-12-18T04:16:56;91.50;;;36.87;;
34920;SDS011;21128;50.016;20.002;2022-12-18T04:19:41;82.33;;;34.33;;
34920;SDS011;21128;50.016;20.002;2022-12-18T04:22:34;93.60;;;37.05;;
34920;SDS011;21128;50.016;20.002;2022-12-18T04:25:20;82.03;;;34.37;;
34920;SDS011;21128;50.016;20.002;2022-12-18T04:28:06;87.07;;;34.70;;
34920;SDS011;21128;50.016;20.002;2022-12-18T04:30:51;85.37;;;35.07;;
34920;SDS011;21128;50.016;20.002;2022-12-18T04:33:37;91.45;;;36.10;;
34920;SDS011;21128;50.016;20.002;2022-12-18T04:36:26;84.67;;;34.73;;
34920;SDS011;21128;50.016;20.002;2022-12-18T04:39:17;83.37;;;32.30;;
34920;SDS011;21128;50.016;20.002;2022-12-18T04:42:03;82.07;;;33.47;;
34920;SDS011;21128;50.016;20.002;2022-12-18T04:44:49;87.53;;;33.60;;
34920;SDS011;21128;50.016;20.002;2022-12-18T04:47:34;83.97;;;35.57;;
34920;SDS011;21128;50.016;20.002;2022-12-18T04:50:26;106.93;;;37.10;;
34920;SDS011;21128;50.016;20.002;2022-12-18T04:53:12;97.97;;;37.77;;
34920;SDS011;21128;50.016;20.002;2022-12-18T04:56:05;99.77;;;38.57;;
34920;SDS011;21128;50.016;20.002;2022-12-18T04:58:52;92.70;;;36.67;;
34920;SDS011;21128;50.016;20.002;2022-12-18T05:01:38;98.30;;;38.73;;
34920;SDS011;21128;50.016;20.002;2022-12-18T05:04:24;89.97;;;36.13;;
34920;SDS011;21128;50.016;20.002;2022-12-18T05:07:09;95.77;;;37.63;;
34920;SDS011;21128;50.016;20.002;2022-12-18T05:09:55;81.20;;;35.97;;
34920;SDS011;21128;50.016;20.002;2022-12-18T05:12:40;91.07;;;37.07;;
34920;SDS011;21128;50.016;20.002;2022-12-18T05:15:43;67.37;;;26.90;;
34920;SDS011;21128;50.016;20.002;2022-12-18T05:18:37;91.05;;;34.20;;
34920;SDS011;21128;50.016;20.002;2022-12-18T05:21:42;87.30;;;31.20;;
34920;SDS011;21128;50.016;20.002;2022-12-18T05:24:28;91.60;;;33.07;;
34920;SDS011;21128;50.016;20.002;2022-12-18T05:27:13;82.27;;;32.43;;
34920;SDS011;21128;50.016;20.002;2022-12-18T05:29:59;84.83;;;31.63;;
34920;SDS011;21128;50.016;20.002;2022-12-18T05:32:44;97.17;;;32.37;;
34920;SDS011;21128;50.016;20.002;2022-12-18T05:35:30;82.97;;;31.10;;
34920;SDS011;21128;50.016;20.002;2022-12-18T05:38:16;80.40;;;31.30;;
34920;SDS011;21128;50.016;20.002;2022-12-18T05:41:08;87.80;;;35.00;;
34920;SDS011;21128;50.016;20.002;2022-12-18T05:43:54;81.55;;;28.90;;
34920;SDS011;21128;50.016;20.002;2022-12-18T05:46:46;83.43;;;33.13;;
34920;SDS011;21128;50.016;20.002;2022-12-18T05:49:38;87.40;;;32.40;;
34920;SDS011;21128;50.016;20.002;2022-12-18T05:52:24;76.57;;;30.13;;
34920;SDS011;21128;50.016;20.002;2022-12-18T05:55:09;83.47;;;33.33;;
34920;SDS011;21128;50.016;20.002;2022-12-18T05:58:02;86.83;;;32.77;;
34920;SDS011;21128;50.016;20.002;2022-12-18T06:00:49;87.10;;;35.40;;
34920;SDS011;21128;50.016;20.002;2022-12-18T06:03:34;90.90;;;34.23;;
34920;SDS011;21128;50.016;20.002;2022-12-18T06:06:24;93.57;;;34.47;;
34920;SDS011;21128;50.016;20.002;2022-12-18T06:09:11;94.17;;;34.87;;
34920;SDS011;21128;50.016;20.002;2022-12-18T06:11:57;84.10;;;32.37;;
34920;SDS011;21128;50.016;20.002;2022-12-18T06:14:49;86.00;;;31.90;;
34920;SDS011;21128;50.016;20.002;2022-12-18T06:17:34;86.60;;;34.73;;
34920;SDS011;21128;50.016;20.002;2022-12-18T06:20:27;92.87;;;35.23;;
34920;SDS011;21128;50.016;20.002;2022-12-18T06:23:13;93.87;;;35.73;;
34920;SDS011;21128;50.016;20.002;2022-12-18T06:26:02;85.03;;;34.73;;
34920;SDS011;21128;50.016;20.002;2022-12-18T06:28:51;93.27;;;36.25;;
34920;SDS011;21128;50.016;20.002;2022-12-18T06:31:37;87.63;;;34.03;;
34920;SDS011;21128;50.016;20.002;2022-12-18T06:34:24;91.33;;;32.37;;
34920;SDS011;21128;50.016;20.002;2022-12-18T06:37:10;85.37;;;34.27;;
34920;SDS011;21128;50.016;20.002;2022-12-18T06:40:02;92.47;;;34.00;;
34920;SDS011;21128;50.016;20.002;2022-12-18T06:42:48;91.20;;;35.52;;
34920;SDS011;21128;50.016;20.002;2022-12-18T06:45:34;97.03;;;35.33;;
34920;SDS011;21128;50.016;20.002;2022-12-18T06:48:19;87.55;;;33.20;;
34920;SDS011;21128;50.016;20.002;2022-12-18T06:51:05;88.70;;;35.10;;
34920;SDS011;21128;50.016;20.002;2022-12-18T06:53:51;89.15;;;35.00;;
34920;SDS011;21128;50.016;20.002;2022-12-18T06:56:37;88.60;;;33.93;;
34920;SDS011;21128;50.016;20.002;2022-12-18T06:59:23;94.43;;;36.37;;
34920;SDS011;21128;50.016;20.002;2022-12-18T07:02:10;97.67;;;37.40;;
34920;SDS011;21128;50.016;20.002;2022-12-18T07:04:58;83.77;;;33.60;;
34920;SDS011;21128;50.016;20.002;2022-12-18T07:07:50;96.47;;;37.73;;
34920;SDS011;21128;50.016;20.002;2022-12-18T07:10:49;99.87;;;35.80;;
34920;SDS011;21128;50.016;20.002;2022-12-18T07:13:38;89.60;;;35.03;;
34920;SDS011;21128;50.016;20.002;2022-12-18T07:16:24;98.40;;;35.33;;
34920;SDS011;21128;50.016;20.002;2022-12-18T07:19:16;92.20;;;35.30;;
34920;SDS011;21128;50.016;20.002;2022-12-18T07:22:14;90.90;;;39.03;;
34920;SDS011;21128;50.016;20.002;2022-12-18T07:25:00;91.93;;;38.03;;
34920;SDS011;21128;50.016;20.002;2022-12-18T07:27:45;96.77;;;39.90;;
34920;SDS011;21128;50.016;20.002;2022-12-18T07:30:31;96.13;;;39.73;;
34920;SDS011;21128;50.016;20.002;2022-12-18T07:33:16;98.37;;;41.07;;
34920;SDS011;21128;50.016;20.002;2022-12-18T07:36:02;97.83;;;41.27;;
34920;SDS011;21128;50.016;20.002;2022-12-18T07:38:50;97.40;;;37.63;;
34920;SDS011;21128;50.016;20.002;2022-12-18T07:41:38;100.37;;;40.43;;
34920;SDS011;21128;50.016;20.002;2022-12-18T07:44:30;91.90;;;39.73;;
34920;SDS011;21128;50.016;20.002;2022-12-18T07:47:16;100.10;;;40.73;;
34920;SDS011;21128;50.016;20.002;2022-12-18T07:50:12;98.13;;;41.53;;
34920;SDS011;21128;50.016;20.002;2022-12-18T07:53:02;105.30;;;43.15;;
34920;SDS011;21128;50.016;20.002;2022-12-18T07:55:54;100.10;;;42.60;;
34920;SDS011;21128;50.016;20.002;2022-12-18T07:58:41;98.30;;;39.47;;
34920;SDS011;21128;50.016;20.002;2022-12-18T08:01:26;92.67;;;39.20;;
34920;SDS011;21128;50.016;20.002;2022-12-18T08:04:12;101.73;;;41.77;;
34920;SDS011;21128;50.016;20.002;2022-12-18T08:07:05;97.87;;;36.90;;
34920;SDS011;21128;50.016;20.002;2022-12-18T08:09:57;96.13;;;39.47;;
34920;SDS011;21128;50.016;20.002;2022-12-18T08:12:43;75.95;;;31.90;;
34920;SDS011;21128;50.016;20.002;2022-12-18T08:15:28;99.60;;;40.53;;
34920;SDS011;21128;50.016;20.002;2022-12-18T08:18:14;96.67;;;40.23;;
34920;SDS011;21128;50.016;20.002;2022-12-18T08:21:17;95.40;;;39.80;;
34920;SDS011;21128;50.016;20.002;2022-12-18T08:24:14;92.77;;;38.63;;
34920;SDS011;21128;50.016;20.002;2022-12-18T08:26:59;90.95;;;38.15;;
34920;SDS011;21128;50.016;20.002;2022-12-18T08:29:45;89.80;;;38.83;;
34920;SDS011;21128;50.016;20.002;2022-12-18T08:32:30;93.10;;;38.65;;
34920;SDS011;21128;50.016;20.002;2022-12-18T08:35:18;93.07;;;37.57;;
34920;SDS011;21128;50.016;20.002;2022-12-18T08:38:03;89.47;;;37.67;;
34920;SDS011;21128;50.016;20.002;2022-12-18T08:40:49;93.40;;;39.03;;
34920;SDS011;21128;50.016;20.002;2022-12-18T08:43:41;86.53;;;39.33;;
34920;SDS011;21128;50.016;20.002;2022-12-18T08:46:46;88.70;;;35.97;;
34920;SDS011;21128;50.016;20.002;2022-12-18T08:49:39;59.38;;;27.42;;
34920;SDS011;21128;50.016;20.002;2022-12-18T08:52:24;84.23;;;34.60;;
34920;SDS011;21128;50.016;20.002;2022-12-18T08:55:11;81.25;;;35.80;;
34920;SDS011;21128;50.016;20.002;2022-12-18T08:57:56;88.80;;;35.80;;
34920;SDS011;21128;50.016;20.002;2022-12-18T09:00:42;79.70;;;33.87;;
34920;SDS011;21128;50.016;20.002;2022-12-18T09:03:27;84.30;;;33.85;;
34920;SDS011;21128;50.016;20.002;2022-12-18T09:06:13;87.47;;;34.37;;
34920;SDS011;21128;50.016;20.002;2022-12-18T09:09:01;83.95;;;34.60;;
34920;SDS011;21128;50.016;20.002;2022-12-18T09:11:54;82.50;;;34.00;;
34920;SDS011;21128;50.016;20.002;2022-12-18T09:14:40;79.90;;;35.95;;
34920;SDS011;21128;50.016;20.002;2022-12-18T09:17:25;93.77;;;38.80;;
34920;SDS011;21128;50.016;20.002;2022-12-18T09:20:11;87.00;;;34.67;;
34920;SDS011;21128;50.016;20.002;2022-12-18T09:23:04;67.08;;;27.60;;
34920;SDS011;21128;50.016;20.002;2022-12-18T09:25:51;84.23;;;37.13;;
34920;SDS011;21128;50.016;20.002;2022-12-18T09:28:36;76.23;;;34.57;;
34920;SDS011;21128;50.016;20.002;2022-12-18T09:31:22;74.50;;;33.70;;
34920;SDS011;21128;50.016;20.002;2022-12-18T09:34:09;78.83;;;34.33;;
34920;SDS011;21128;50.016;20.002;2022-12-18T09:36:56;76.43;;;35.23;;
34920;SDS011;21128;50.016;20.002;2022-12-18T09:39:41;70.90;;;34.27;;
34920;SDS011;21128;50.016;20.002;2022-12-18T09:42:34;79.30;;;35.80;;
34920;SDS011;21128;50.016;20.002;2022-12-18T09:45:19;78.73;;;34.63;;
34920;SDS011;21128;50.016;20.002;2022-12-18T09:48:05;76.23;;;34.13;;
34920;SDS011;21128;50.016;20.002;2022-12-18T09:50:57;72.33;;;33.00;;
34920;SDS011;21128;50.016;20.002;2022-12-18T09:54:16;76.57;;;34.50;;
34920;SDS011;21128;50.016;20.002;2022-12-18T09:57:11;79.40;;;34.83;;
34920;SDS011;21128;50.016;20.002;2022-12-18T10:00:06;86.67;;;35.15;;
34920;SDS011;21128;50.016;20.002;2022-12-18T10:03:03;75.67;;;36.47;;
34920;SDS011;21128;50.016;20.002;2022-12-18T10:06:02;80.53;;;33.97;;
34920;SDS011;21128;50.016;20.002;2022-12-18T10:15:29;81.55;;;35.85;;
34920;SDS011;21128;50.016;20.002;2022-12-18T10:27:56;76.30;;;37.27;;
34920;SDS011;21128;50.016;20.002;2022-12-18T10:30:45;79.27;;;35.23;;
34920;SDS011;21128;50.016;20.002;2022-12-18T10:33:32;84.07;;;36.20;;
34920;SDS011;21128;50.016;20.002;2022-12-18T10:36:19;75.43;;;34.77;;
34920;SDS011;21128;50.016;20.002;2022-12-18T10:39:16;72.97;;;33.63;;
34920;SDS011;21128;50.016;20.002;2022-12-18T10:42:16;72.17;;;33.87;;
34920;SDS011;21128;50.016;20.002;2022-12-18T10:47:52;73.63;;;33.23;;
34920;SDS011;21128;50.016;20.002;2022-12-18T10:50:38;71.85;;;32.85;;
34920;SDS011;21128;50.016;20.002;2022-12-18T10:53:31;66.33;;;30.73;;
34920;SDS011;21128;50.016;20.002;2022-12-18T10:56:20;68.70;;;32.00;;
34920;SDS011;21128;50.016;20.002;2022-12-18T10:59:07;64.20;;;28.17;;
34920;SDS011;21128;50.016;20.002;2022-12-18T11:01:58;61.13;;;26.20;;
34920;SDS011;21128;50.016;20.002;2022-12-18T11:04:51;58.40;;;27.40;;
34920;SDS011;21128;50.016;20.002;2022-12-18T11:07:48;62.43;;;28.53;;
34920;SDS011;21128;50.016;20.002;2022-12-18T11:10:36;59.17;;;27.17;;
34920;SDS011;21128;50.016;20.002;2022-12-18T11:13:32;61.73;;;27.43;;
34920;SDS011;21128;50.016;20.002;2022-12-18T11:16:25;63.90;;;28.95;;
34920;SDS011;21128;50.016;20.002;2022-12-18T11:19:20;59.73;;;28.60;;
34920;SDS011;21128;50.016;20.002;2022-12-18T11:22:25;61.97;;;27.07;;
34920;SDS011;21128;50.016;20.002;2022-12-18T11:34:04;72.00;;;32.80;;
34920;SDS011;21128;50.016;20.002;2022-12-18T11:36:58;62.05;;;30.30;;
34920;SDS011;21128;50.016;20.002;2022-12-18T11:39:49;66.00;;;29.50;;
34920;SDS011;21128;50.016;20.002;2022-12-18T11:42:52;61.30;;;27.40;;
34920;SDS011;21128;50.016;20.002;2022-12-18T11:45:47;62.83;;;30.40;;
34920;SDS011;21128;50.016;20.002;2022-12-18T11:48:43;63.13;;;28.23;;
34920;SDS011;21128;50.016;20.002;2022-12-18T11:51:37;62.23;;;28.37;;
34920;SDS011;21128;50.016;20.002;2022-12-18T11:54:35;64.00;;;27.87;;
34920;SDS011;21128;50.016;20.002;2022-12-18T12:00:19;59.50;;;28.00;;
34920;SDS011;21128;50.016;20.002;2022-12-18T12:06:22;64.35;;;27.15;;
34920;SDS011;21128;50.016;20.002;2022-12-18T12:09:26;61.27;;;28.10;;
34920;SDS011;21128;50.016;20.002;2022-12-18T12:15:48;52.50;;;25.50;;
34920;SDS011;21128;50.016;20.002;2022-12-18T12:25:33;59.43;;;26.87;;
34920;SDS011;21128;50.016;20.002;2022-12-18T12:28:35;54.83;;;25.07;;
34920;SDS011;21128;50.016;20.002;2022-12-18T12:34:59;51.67;;;22.77;;
34920;SDS011;21128;50.016;20.002;2022-12-18T12:41:04;49.47;;;23.03;;
34920;SDS011;21128;50.016;20.002;2022-12-18T12:44:22;49.20;;;23.75;;
34920;SDS011;21128;50.016;20.002;2022-12-18T12:47:16;55.50;;;24.10;;
34920;SDS011;21128;50.016;20.002;2022-12-18T12:50:06;50.20;;;23.43;;
34920;SDS011;21128;50.016;20.002;2022-12-18T12:53:01;51.70;;;22.07;;
34920;SDS011;21128;50.016;20.002;2022-12-18T12:55:57;47.37;;;21.77;;
34920;SDS011;21128;50.016;20.002;2022-12-18T13:04:50;50.43;;;23.83;;
34920;SDS011;21128;50.016;20.002;2022-12-18T13:08:12;46.37;;;20.97;;
34920;SDS011;21128;50.016;20.002;2022-12-18T13:11:12;48.60;;;20.87;;
34920;SDS011;21128;50.016;20.002;2022-12-18T13:15:01;46.37;;;20.57;;
34920;SDS011;21128;50.016;20.002;2022-12-18T13:20:53;46.93;;;22.07;;
34920;SDS011;21128;50.016;20.002;2022-12-18T13:24:27;32.50;;;15.43;;
34920;SDS011;21128;50.016;20.002;2022-12-18T13:44:52;55.50;;;25.67;;
34920;SDS011;21128;50.016;20.002;2022-12-18T13:47:44;54.27;;;24.53;;
34920;SDS011;21128;50.016;20.002;2022-12-18T13:50:30;57.07;;;26.30;;
34920;SDS011;21128;50.016;20.002;2022-12-18T13:53:20;54.37;;;26.30;;
34920;SDS011;21128;50.016;20.002;2022-12-18T13:56:15;62.00;;;28.27;;
34920;SDS011;21128;50.016;20.002;2022-12-18T13:59:11;72.87;;;32.90;;
34920;SDS011;21128;50.016;20.002;2022-12-18T14:02:00;70.28;;;31.70;;
34920;SDS011;21128;50.016;20.002;2022-12-18T14:04:53;71.33;;;31.20;;
34920;SDS011;21128;50.016;20.002;2022-12-18T14:07:39;76.33;;;31.23;;
34920;SDS011;21128;50.016;20.002;2022-12-18T14:10:31;77.10;;;35.00;;
34920;SDS011;21128;50.016;20.002;2022-12-18T14:13:23;73.90;;;34.23;;
34920;SDS011;21128;50.016;20.002;2022-12-18T14:16:14;79.65;;;34.90;;
34920;SDS011;21128;50.016;20.002;2022-12-18T14:19:12;79.80;;;34.57;;
34920;SDS011;21128;50.016;20.002;2022-12-18T14:22:11;76.00;;;34.63;;
34920;SDS011;21128;50.016;20.002;2022-12-18T14:25:23;74.13;;;34.10;;
34920;SDS011;21128;50.016;20.002;2022-12-18T14:28:13;78.13;;;36.53;;
34920;SDS011;21128;50.016;20.002;2022-12-18T14:31:00;88.70;;;37.13;;
34920;SDS011;21128;50.016;20.002;2022-12-18T14:33:52;81.97;;;36.07;;
34920;SDS011;21128;50.016;20.002;2022-12-18T14:36:39;78.93;;;37.63;;
34920;SDS011;21128;50.016;20.002;2022-12-18T14:39:25;86.07;;;38.77;;
34920;SDS011;21128;50.016;20.002;2022-12-18T14:42:10;89.80;;;38.77;;
34920;SDS011;21128;50.016;20.002;2022-12-18T14:48:40;97.13;;;40.60;;
34920;SDS011;21128;50.016;20.002;2022-12-18T14:51:28;90.00;;;39.60;;
34920;SDS011;21128;50.016;20.002;2022-12-18T14:54:17;89.27;;;41.77;;
34920;SDS011;21128;50.016;20.002;2022-12-18T15:00:18;90.23;;;38.27;;
34920;SDS011;21128;50.016;20.002;2022-12-18T15:03:07;92.87;;;37.73;;
34920;SDS011;21128;50.016;20.002;2022-12-18T15:05:55;86.50;;;37.67;;
34920;SDS011;21128;50.016;20.002;2022-12-18T15:08:41;87.03;;;35.20;;
34920;SDS011;21128;50.016;20.002;2022-12-18T15:14:40;81.35;;;34.05;;
34920;SDS011;21128;50.016;20.002;2022-12-18T15:17:27;90.60;;;35.03;;
34920;SDS011;21128;50.016;20.002;2022-12-18T15:20:13;83.37;;;34.00;;
34920;SDS011;21128;50.016;20.002;2022-12-18T15:23:29;66.77;;;26.82;;
34920;SDS011;21128;50.016;20.002;2022-12-18T15:26:20;95.97;;;36.27;;
34920;SDS011;21128;50.016;20.002;2022-12-18T15:29:15;83.63;;;33.70;;
34920;SDS011;21128;50.016;20.002;2022-12-18T15:32:05;78.30;;;32.30;;
34920;SDS011;21128;50.016;20.002;2022-12-18T15:38:07;85.38;;;37.55;;
34920;SDS011;21128;50.016;20.002;2022-12-18T15:40:53;92.05;;;39.40;;
34920;SDS011;21128;50.016;20.002;2022-12-18T15:43:39;99.27;;;41.63;;
34920;SDS011;21128;50.016;20.002;2022-12-18T15:46:25;94.07;;;38.43;;
34920;SDS011;21128;50.016;20.002;2022-12-18T15:49:12;89.00;;;37.63;;
34920;SDS011;21128;50.016;20.002;2022-12-18T15:51:58;106.47;;;41.73;;
34920;SDS011;21128;50.016;20.002;2022-12-18T15:54:45;99.90;;;41.27;;
34920;SDS011;21128;50.016;20.002;2022-12-18T15:57:49;96.67;;;38.00;;
34920;SDS011;21128;50.016;20.002;2022-12-18T16:00:41;98.60;;;39.07;;
34920;SDS011;21128;50.016;20.002;2022-12-18T16:03:27;99.50;;;38.37;;
34920;SDS011;21128;50.016;20.002;2022-12-18T16:06:13;101.37;;;40.93;;
34920;SDS011;21128;50.016;20.002;2022-12-18T16:09:04;102.20;;;40.90;;
34920;SDS011;21128;50.016;20.002;2022-12-18T16:11:57;108.17;;;44.40;;
34920;SDS011;21128;50.016;20.002;2022-12-18T16:14:43;114.07;;;43.30;;
34920;SDS011;21128;50.016;20.002;2022-12-18T16:17:28;109.27;;;42.63;;
34920;SDS011;21128;50.016;20.002;2022-12-18T16:23:13;111.03;;;44.40;;
34920;SDS011;21128;50.016;20.002;2022-12-18T16:25:59;118.27;;;45.27;;
34920;SDS011;21128;50.016;20.002;2022-12-18T16:28:44;117.67;;;45.23;;
34920;SDS011;21128;50.016;20.002;2022-12-18T16:31:30;107.50;;;44.53;;
34920;SDS011;21128;50.016;20.002;2022-12-18T16:34:23;112.53;;;45.47;;
34920;SDS011;21128;50.016;20.002;2022-12-18T16:37:14;112.37;;;45.10;;
34920;SDS011;21128;50.016;20.002;2022-12-18T16:40:00;119.23;;;45.10;;
34920;SDS011;21128;50.016;20.002;2022-12-18T16:42:46;110.90;;;44.17;;
34920;SDS011;21128;50.016;20.002;2022-12-18T16:45:32;131.43;;;50.40;;
34920;SDS011;21128;50.016;20.002;2022-12-18T16:48:24;114.03;;;48.45;;
34920;SDS011;21128;50.016;20.002;2022-12-18T16:51:10;123.03;;;47.13;;
34920;SDS011;21128;50.016;20.002;2022-12-18T16:54:02;115.27;;;46.60;;
34920;SDS011;21128;50.016;20.002;2022-12-18T16:56:49;121.30;;;49.60;;
34920;SDS011;21128;50.016;20.002;2022-12-18T16:59:42;116.43;;;49.77;;
34920;SDS011;21128;50.016;20.002;2022-12-18T17:02:29;134.90;;;51.50;;
34920;SDS011;21128;50.016;20.002;2022-12-18T17:05:14;121.67;;;47.50;;
34920;SDS011;21128;50.016;20.002;2022-12-18T17:08:00;138.40;;;53.83;;
34920;SDS011;21128;50.016;20.002;2022-12-18T17:10:46;137.90;;;51.83;;
34920;SDS011;21128;50.016;20.002;2022-12-18T17:13:31;132.30;;;51.90;;
34920;SDS011;21128;50.016;20.002;2022-12-18T17:16:17;144.40;;;54.90;;
34920;SDS011;21128;50.016;20.002;2022-12-18T17:19:03;137.63;;;53.70;;
34920;SDS011;21128;50.016;20.002;2022-12-18T17:21:49;139.25;;;54.75;;
34920;SDS011;21128;50.016;20.002;2022-12-18T17:24:41;127.97;;;47.83;;
34920;SDS011;21128;50.016;20.002;2022-12-18T17:27:33;136.65;;;52.65;;
34920;SDS011;21128;50.016;20.002;2022-12-18T17:30:19;122.70;;;49.87;;
34920;SDS011;21128;50.016;20.002;2022-12-18T17:33:04;128.57;;;51.73;;
34920;SDS011;21128;50.016;20.002;2022-12-18T17:35:57;130.97;;;53.33;;
34920;SDS011;21128;50.016;20.002;2022-12-18T17:41:36;115.87;;;46.07;;
34920;SDS011;21128;50.016;20.002;2022-12-18T17:44:22;150.20;;;57.00;;
34920;SDS011;21128;50.016;20.002;2022-12-18T17:47:08;146.93;;;61.60;;
34920;SDS011;21128;50.016;20.002;2022-12-18T17:49:56;155.33;;;62.50;;
34920;SDS011;21128;50.016;20.002;2022-12-18T17:52:41;145.60;;;59.50;;
34920;SDS011;21128;50.016;20.002;2022-12-18T17:55:27;152.60;;;60.40;;
34920;SDS011;21128;50.016;20.002;2022-12-18T17:58:13;147.77;;;60.17;;
34920;SDS011;21128;50.016;20.002;2022-12-18T18:00:59;149.40;;;61.07;;
34920;SDS011;21128;50.016;20.002;2022-12-18T18:03:52;133.03;;;47.80;;
34920;SDS011;21128;50.016;20.002;2022-12-18T18:06:40;158.00;;;62.07;;
34920;SDS011;21128;50.016;20.002;2022-12-18T18:09:26;159.10;;;61.00;;
34920;SDS011;21128;50.016;20.002;2022-12-18T18:12:17;165.43;;;61.67;;
34920;SDS011;21128;50.016;20.002;2022-12-18T18:15:29;157.45;;;62.75;;
34920;SDS011;21128;50.016;20.002;2022-12-18T18:18:15;115.23;;;45.60;;
34920;SDS011;21128;50.016;20.002;2022-12-18T18:21:04;163.70;;;59.53;;
34920;SDS011;21128;50.016;20.002;2022-12-18T18:23:58;165.85;;;63.05;;
34920;SDS011;21128;50.016;20.002;2022-12-18T18:26:45;160.90;;;65.13;;
34920;SDS011;21128;50.016;20.002;2022-12-18T18:29:31;199.93;;;73.83;;
34920;SDS011;21128;50.016;20.002;2022-12-18T18:32:17;158.63;;;61.97;;